sensor_id;sensor_type;location;lat;lon;timestamp;P1;durP1;ratioP1;P2;durP2;ratioP2
78927;SDS011;68322;22.726;113.540;2023-05-07T00:00:14;28.88;;;14.73;;
78927;SDS011;68322;22.726;113.540;2023-05-07T00:02:43;29.40;;;14.95;;
78927;SDS011;68322;22.726;113.540;2023-05-07T00:05:10;25.65;;;13.48;;
78927;SDS011;68322;22.726;113.540;2023-05-07T00:07:36;31.80;;;14.93;;
78927;SDS011;68322;22.726;113.540;2023-05-07T00:10:03;33.00;;;15.52;;
78927;SDS011;68322;22.726;113.540;2023-05-07T00:12:32;32.70;;;14.88;;
78927;SDS011;68322;22.726;113.540;2023-05-07T00:15:05;24.40;;;14.30;;
78927;SDS011;68322;22.726;113.540;2023-05-07T00:17:32;26.42;;;14.23;;
78927;SDS011;68322;22.726;113.540;2023-05-07T00:19:59;32.60;;;15.95;;
78927;SDS011;68322;22.726;113.540;2023-05-07T00:22:26;28.17;;;15.07;;
78927;SDS011;68322;22.726;113.540;2023-05-07T00:24:55;26.63;;;14.50;;
78927;SDS011;68322;22.726;113.540;2023-05-07T00:27:22;27.65;;;13.98;;
78927;SDS011;68322;22.726;113.540;2023-05-07T00:29:50;28.25;;;14.60;;
78927;SDS011;68322;22.726;113.540;2023-05-07T00:32:17;32.55;;;14.77;;
78927;SDS011;68322;22.726;113.540;2023-05-07T00:34:43;29.92;;;14.60;;
78927;SDS011;68322;22.726;113.540;2023-05-07T00:37:10;25.27;;;12.68;;
78927;SDS011;68322;22.726;113.540;2023-05-07T00:39:37;26.75;;;14.20;;
78927;SDS011;68322;22.726;113.540;2023-05-07T00:42:04;23.25;;;13.63;;
78927;SDS011;68322;22.726;113.540;2023-05-07T00:44:30;30.05;;;14.18;;
78927;SDS011;68322;22.726;113.540;2023-05-07T00:46:57;27.30;;;13.50;;
78927;SDS011;68322;22.726;113.540;2023-05-07T00:49:32;27.35;;;14.35;;
78927;SDS011;68322;22.726;113.540;2023-05-07T00:52:01;26.80;;;12.48;;
78927;SDS011;68322;22.726;113.540;2023-05-07T00:54:27;34.83;;;14.82;;
78927;SDS011;68322;22.726;113.540;2023-05-07T00:56:54;26.55;;;13.95;;
78927;SDS011;68322;22.726;113.540;2023-05-07T00:59:21;25.73;;;13.60;;
78927;SDS011;68322;22.726;113.540;2023-05-07T01:01:48;30.23;;;15.48;;
78927;SDS011;68322;22.726;113.540;2023-05-07T01:04:15;31.02;;;15.82;;
78927;SDS011;68322;22.726;113.540;2023-05-07T01:06:41;26.60;;;15.73;;
78927;SDS011;68322;22.726;113.540;2023-05-07T01:09:08;27.08;;;15.00;;
78927;SDS011;68322;22.726;113.540;2023-05-07T01:11:35;35.67;;;15.40;;
78927;SDS011;68322;22.726;113.540;2023-05-07T01:14:02;33.75;;;16.58;;
78927;SDS011;68322;22.726;113.540;2023-05-07T01:16:28;28.35;;;15.07;;
78927;SDS011;68322;22.726;113.540;2023-05-07T01:18:56;28.27;;;14.50;;
78927;SDS011;68322;22.726;113.540;2023-05-07T01:21:24;29.55;;;15.02;;
78927;SDS011;68322;22.726;113.540;2023-05-07T01:23:52;27.10;;;14.00;;
78927;SDS011;68322;22.726;113.540;2023-05-07T01:26:19;28.80;;;14.52;;
78927;SDS011;68322;22.726;113.540;2023-05-07T01:28:47;26.15;;;14.43;;
78927;SDS011;68322;22.726;113.540;2023-05-07T01:31:14;25.23;;;14.57;;
78927;SDS011;68322;22.726;113.540;2023-05-07T01:33:42;25.10;;;13.65;;
78927;SDS011;68322;22.726;113.540;2023-05-07T01:38:37;26.40;;;13.48;;
78927;SDS011;68322;22.726;113.540;2023-05-07T01:41:04;24.15;;;13.05;;
78927;SDS011;68322;22.726;113.540;2023-05-07T01:43:31;25.27;;;13.93;;
78927;SDS011;68322;22.726;113.540;2023-05-07T01:45:57;22.55;;;13.05;;
78927;SDS011;68322;22.726;113.540;2023-05-07T01:48:25;21.25;;;13.40;;
78927;SDS011;68322;22.726;113.540;2023-05-07T01:50:52;29.30;;;14.25;;
78927;SDS011;68322;22.726;113.540;2023-05-07T01:53:19;31.73;;;15.95;;
78927;SDS011;68322;22.726;113.540;2023-05-07T01:55:45;22.08;;;14.38;;
78927;SDS011;68322;22.726;113.540;2023-05-07T01:58:12;26.67;;;13.65;;
78927;SDS011;68322;22.726;113.540;2023-05-07T02:00:39;25.33;;;13.57;;
78927;SDS011;68322;22.726;113.540;2023-05-07T02:03:06;19.25;;;12.70;;
78927;SDS011;68322;22.726;113.540;2023-05-07T02:05:33;22.40;;;13.15;;
78927;SDS011;68322;22.726;113.540;2023-05-07T02:08:00;22.55;;;12.85;;
78927;SDS011;68322;22.726;113.540;2023-05-07T02:10:26;21.95;;;12.88;;
78927;SDS011;68322;22.726;113.540;2023-05-07T02:12:53;21.00;;;13.05;;
78927;SDS011;68322;22.726;113.540;2023-05-07T02:15:20;26.83;;;13.90;;
78927;SDS011;68322;22.726;113.540;2023-05-07T02:18:02;24.45;;;14.45;;
78927;SDS011;68322;22.726;113.540;2023-05-07T02:20:33;26.13;;;14.18;;
78927;SDS011;68322;22.726;113.540;2023-05-07T02:22:59;24.95;;;14.27;;
78927;SDS011;68322;22.726;113.540;2023-05-07T02:25:28;24.05;;;14.15;;
78927;SDS011;68322;22.726;113.540;2023-05-07T02:27:55;20.60;;;14.80;;
78927;SDS011;68322;22.726;113.540;2023-05-07T02:30:22;21.85;;;14.50;;
78927;SDS011;68322;22.726;113.540;2023-05-07T02:32:49;23.55;;;13.57;;
78927;SDS011;68322;22.726;113.540;2023-05-07T02:35:15;30.38;;;15.52;;
78927;SDS011;68322;22.726;113.540;2023-05-07T02:37:42;31.10;;;15.27;;
78927;SDS011;68322;22.726;113.540;2023-05-07T02:40:09;23.55;;;14.40;;
78927;SDS011;68322;22.726;113.540;2023-05-07T02:42:37;35.47;;;15.55;;
78927;SDS011;68322;22.726;113.540;2023-05-07T02:45:04;26.65;;;14.82;;
78927;SDS011;68322;22.726;113.540;2023-05-07T02:47:31;23.50;;;13.20;;
78927;SDS011;68322;22.726;113.540;2023-05-07T02:49:58;29.38;;;13.75;;
78927;SDS011;68322;22.726;113.540;2023-05-07T02:52:24;23.35;;;13.77;;
78927;SDS011;68322;22.726;113.540;2023-05-07T02:54:52;28.17;;;14.75;;
78927;SDS011;68322;22.726;113.540;2023-05-07T02:57:20;25.80;;;15.05;;
78927;SDS011;68322;22.726;113.540;2023-05-07T02:59:47;32.90;;;14.75;;
78927;SDS011;68322;22.726;113.540;2023-05-07T03:02:13;34.75;;;17.90;;
78927;SDS011;68322;22.726;113.540;2023-05-07T03:04:40;33.53;;;19.50;;
78927;SDS011;68322;22.726;113.540;2023-05-07T03:07:07;22.58;;;13.35;;
78927;SDS011;68322;22.726;113.540;2023-05-07T03:09:33;6.45;;;2.75;;
78927;SDS011;68322;22.726;113.540;2023-05-07T03:12:00;7.45;;;1.90;;
78927;SDS011;68322;22.726;113.540;2023-05-07T03:14:27;7.43;;;2.30;;
78927;SDS011;68322;22.726;113.540;2023-05-07T03:16:54;6.45;;;1.95;;
78927;SDS011;68322;22.726;113.540;2023-05-07T03:19:21;6.03;;;1.70;;
78927;SDS011;68322;22.726;113.540;2023-05-07T03:21:47;5.00;;;1.80;;
78927;SDS011;68322;22.726;113.540;2023-05-07T03:24:14;12.13;;;2.30;;
78927;SDS011;68322;22.726;113.540;2023-05-07T03:26:43;5.88;;;1.75;;
78927;SDS011;68322;22.726;113.540;2023-05-07T03:29:11;4.80;;;1.88;;
78927;SDS011;68322;22.726;113.540;2023-05-07T03:31:37;6.22;;;2.20;;
78927;SDS011;68322;22.726;113.540;2023-05-07T03:34:04;5.80;;;1.80;;
78927;SDS011;68322;22.726;113.540;2023-05-07T03:36:31;7.38;;;2.17;;
78927;SDS011;68322;22.726;113.540;2023-05-07T03:38:58;5.65;;;2.03;;
78927;SDS011;68322;22.726;113.540;2023-05-07T03:41:24;9.68;;;2.65;;
78927;SDS011;68322;22.726;113.540;2023-05-07T03:43:51;6.40;;;2.53;;
78927;SDS011;68322;22.726;113.540;2023-05-07T03:46:18;6.65;;;2.70;;
78927;SDS011;68322;22.726;113.540;2023-05-07T03:48:46;5.63;;;2.50;;
78927;SDS011;68322;22.726;113.540;2023-05-07T03:51:15;9.57;;;2.58;;
78927;SDS011;68322;22.726;113.540;2023-05-07T03:53:42;5.70;;;2.92;;
78927;SDS011;68322;22.726;113.540;2023-05-07T03:56:09;6.65;;;2.65;;
78927;SDS011;68322;22.726;113.540;2023-05-07T03:58:35;5.75;;;2.88;;
78927;SDS011;68322;22.726;113.540;2023-05-07T04:01:02;8.18;;;3.00;;
78927;SDS011;68322;22.726;113.540;2023-05-07T04:03:29;6.93;;;2.53;;
78927;SDS011;68322;22.726;113.540;2023-05-07T04:05:58;10.05;;;3.88;;
78927;SDS011;68322;22.726;113.540;2023-05-07T04:08:24;7.63;;;2.92;;
78927;SDS011;68322;22.726;113.540;2023-05-07T04:10:54;8.15;;;2.97;;
78927;SDS011;68322;22.726;113.540;2023-05-07T04:13:22;8.27;;;3.42;;
78927;SDS011;68322;22.726;113.540;2023-05-07T04:15:48;8.25;;;3.78;;
78927;SDS011;68322;22.726;113.540;2023-05-07T04:18:15;9.35;;;3.25;;
78927;SDS011;68322;22.726;113.540;2023-05-07T04:20:42;7.88;;;3.70;;
78927;SDS011;68322;22.726;113.540;2023-05-07T04:23:08;7.50;;;2.90;;
78927;SDS011;68322;22.726;113.540;2023-05-07T04:25:35;8.38;;;3.53;;
78927;SDS011;68322;22.726;113.540;2023-05-07T04:28:02;7.53;;;3.00;;
78927;SDS011;68322;22.726;113.540;2023-05-07T04:30:29;8.80;;;3.08;;
78927;SDS011;68322;22.726;113.540;2023-05-07T04:32:55;6.25;;;3.30;;
78927;SDS011;68322;22.726;113.540;2023-05-07T04:35:22;7.47;;;3.22;;
78927;SDS011;68322;22.726;113.540;2023-05-07T04:37:50;9.32;;;3.17;;
78927;SDS011;68322;22.726;113.540;2023-05-07T04:40:17;5.25;;;2.42;;
78927;SDS011;68322;22.726;113.540;2023-05-07T04:42:44;5.82;;;2.63;;
78927;SDS011;68322;22.726;113.540;2023-05-07T04:45:10;5.00;;;2.00;;
78927;SDS011;68322;22.726;113.540;2023-05-07T04:47:38;5.82;;;1.80;;
78927;SDS011;68322;22.726;113.540;2023-05-07T04:50:05;6.88;;;2.63;;
78927;SDS011;68322;22.726;113.540;2023-05-07T04:52:34;6.47;;;2.90;;
78927;SDS011;68322;22.726;113.540;2023-05-07T04:55:00;5.13;;;2.78;;
78927;SDS011;68322;22.726;113.540;2023-05-07T04:57:27;5.68;;;2.50;;
78927;SDS011;68322;22.726;113.540;2023-05-07T04:59:54;5.35;;;2.40;;
78927;SDS011;68322;22.726;113.540;2023-05-07T05:02:21;12.85;;;2.72;;
78927;SDS011;68322;22.726;113.540;2023-05-07T05:04:48;6.00;;;2.53;;
78927;SDS011;68322;22.726;113.540;2023-05-07T05:07:16;7.22;;;2.60;;
78927;SDS011;68322;22.726;113.540;2023-05-07T05:09:43;5.50;;;2.65;;
78927;SDS011;68322;22.726;113.540;2023-05-07T05:12:10;7.55;;;3.05;;
78927;SDS011;68322;22.726;113.540;2023-05-07T05:14:40;11.02;;;3.40;;
78927;SDS011;68322;22.726;113.540;2023-05-07T05:17:11;7.10;;;3.50;;
78927;SDS011;68322;22.726;113.540;2023-05-07T05:19:38;9.88;;;3.88;;
78927;SDS011;68322;22.726;113.540;2023-05-07T05:22:04;9.63;;;3.60;;
78927;SDS011;68322;22.726;113.540;2023-05-07T05:24:32;9.27;;;3.80;;
78927;SDS011;68322;22.726;113.540;2023-05-07T05:27:00;6.50;;;3.30;;
78927;SDS011;68322;22.726;113.540;2023-05-07T05:29:28;7.05;;;3.60;;
78927;SDS011;68322;22.726;113.540;2023-05-07T05:31:56;8.00;;;3.70;;
78927;SDS011;68322;22.726;113.540;2023-05-07T05:34:25;9.15;;;3.30;;
78927;SDS011;68322;22.726;113.540;2023-05-07T05:36:52;8.13;;;3.60;;
78927;SDS011;68322;22.726;113.540;2023-05-07T05:39:19;8.55;;;3.40;;
78927;SDS011;68322;22.726;113.540;2023-05-07T05:41:48;9.90;;;5.38;;
78927;SDS011;68322;22.726;113.540;2023-05-07T05:44:15;12.25;;;4.47;;
78927;SDS011;68322;22.726;113.540;2023-05-07T05:46:42;8.13;;;4.45;;
78927;SDS011;68322;22.726;113.540;2023-05-07T05:49:08;12.43;;;4.32;;
78927;SDS011;68322;22.726;113.540;2023-05-07T05:51:35;9.77;;;4.63;;
78927;SDS011;68322;22.726;113.540;2023-05-07T05:54:02;8.88;;;4.32;;
78927;SDS011;68322;22.726;113.540;2023-05-07T05:56:30;11.75;;;4.32;;
78927;SDS011;68322;22.726;113.540;2023-05-07T05:58:58;6.55;;;4.03;;
78927;SDS011;68322;22.726;113.540;2023-05-07T06:01:27;9.60;;;4.60;;
78927;SDS011;68322;22.726;113.540;2023-05-07T06:03:54;11.70;;;5.30;;
78927;SDS011;68322;22.726;113.540;2023-05-07T06:06:21;8.82;;;5.03;;
78927;SDS011;68322;22.726;113.540;2023-05-07T06:08:47;10.82;;;4.55;;
78927;SDS011;68322;22.726;113.540;2023-05-07T06:11:14;10.95;;;4.75;;
78927;SDS011;68322;22.726;113.540;2023-05-07T06:13:44;9.68;;;4.93;;
78927;SDS011;68322;22.726;113.540;2023-05-07T06:16:12;6.20;;;3.72;;
78927;SDS011;68322;22.726;113.540;2023-05-07T06:18:39;8.10;;;3.50;;
78927;SDS011;68322;22.726;113.540;2023-05-07T06:21:06;7.25;;;3.35;;
78927;SDS011;68322;22.726;113.540;2023-05-07T06:23:32;5.80;;;2.55;;
78927;SDS011;68322;22.726;113.540;2023-05-07T06:26:00;7.40;;;2.45;;
78927;SDS011;68322;22.726;113.540;2023-05-07T06:28:27;5.88;;;2.80;;
78927;SDS011;68322;22.726;113.540;2023-05-07T06:30:56;7.20;;;4.18;;
78927;SDS011;68322;22.726;113.540;2023-05-07T06:33:36;7.07;;;2.72;;
78927;SDS011;68322;22.726;113.540;2023-05-07T06:36:03;9.15;;;3.25;;
78927;SDS011;68322;22.726;113.540;2023-05-07T06:38:33;6.07;;;2.80;;
78927;SDS011;68322;22.726;113.540;2023-05-07T06:40:59;5.90;;;3.03;;
78927;SDS011;68322;22.726;113.540;2023-05-07T06:43:29;6.57;;;3.00;;
78927;SDS011;68322;22.726;113.540;2023-05-07T06:45:56;6.38;;;2.97;;
78927;SDS011;68322;22.726;113.540;2023-05-07T06:48:22;7.93;;;3.25;;
78927;SDS011;68322;22.726;113.540;2023-05-07T06:50:49;6.85;;;3.65;;
78927;SDS011;68322;22.726;113.540;2023-05-07T06:53:18;6.80;;;3.55;;
78927;SDS011;68322;22.726;113.540;2023-05-07T06:55:46;7.88;;;4.38;;
78927;SDS011;68322;22.726;113.540;2023-05-07T06:58:13;8.20;;;4.78;;
78927;SDS011;68322;22.726;113.540;2023-05-07T07:00:39;8.43;;;4.82;;
78927;SDS011;68322;22.726;113.540;2023-05-07T07:03:06;8.73;;;4.72;;
78927;SDS011;68322;22.726;113.540;2023-05-07T07:05:33;8.02;;;4.88;;
78927;SDS011;68322;22.726;113.540;2023-05-07T07:08:00;8.07;;;4.30;;
78927;SDS011;68322;22.726;113.540;2023-05-07T07:10:27;8.80;;;4.13;;
78927;SDS011;68322;22.726;113.540;2023-05-07T07:12:54;8.82;;;4.80;;
78927;SDS011;68322;22.726;113.540;2023-05-07T07:15:20;9.20;;;4.82;;
78927;SDS011;68322;22.726;113.540;2023-05-07T07:17:50;8.20;;;4.60;;
78927;SDS011;68322;22.726;113.540;2023-05-07T07:20:18;11.93;;;5.70;;
78927;SDS011;68322;22.726;113.540;2023-05-07T07:22:45;9.13;;;5.32;;
78927;SDS011;68322;22.726;113.540;2023-05-07T07:25:11;11.25;;;5.40;;
78927;SDS011;68322;22.726;113.540;2023-05-07T07:27:38;9.32;;;5.10;;
78927;SDS011;68322;22.726;113.540;2023-05-07T07:30:05;14.55;;;5.50;;
78927;SDS011;68322;22.726;113.540;2023-05-07T07:32:32;11.48;;;5.68;;
78927;SDS011;68322;22.726;113.540;2023-05-07T07:34:59;8.70;;;5.55;;
78927;SDS011;68322;22.726;113.540;2023-05-07T07:37:26;11.57;;;6.55;;
78927;SDS011;68322;22.726;113.540;2023-05-07T07:39:54;10.32;;;6.90;;
78927;SDS011;68322;22.726;113.540;2023-05-07T07:42:21;9.77;;;6.40;;
78927;SDS011;68322;22.726;113.540;2023-05-07T07:44:48;12.00;;;6.43;;
78927;SDS011;68322;22.726;113.540;2023-05-07T07:47:14;10.23;;;5.50;;
78927;SDS011;68322;22.726;113.540;2023-05-07T07:49:41;10.77;;;5.38;;
78927;SDS011;68322;22.726;113.540;2023-05-07T07:52:08;12.93;;;4.70;;
78927;SDS011;68322;22.726;113.540;2023-05-07T07:54:36;10.60;;;5.20;;
78927;SDS011;68322;22.726;113.540;2023-05-07T07:57:03;9.68;;;5.90;;
78927;SDS011;68322;22.726;113.540;2023-05-07T07:59:30;11.13;;;6.28;;
78927;SDS011;68322;22.726;113.540;2023-05-07T08:01:57;13.27;;;6.60;;
78927;SDS011;68322;22.726;113.540;2023-05-07T08:04:23;11.73;;;6.18;;
78927;SDS011;68322;22.726;113.540;2023-05-07T08:06:51;11.73;;;6.10;;
78927;SDS011;68322;22.726;113.540;2023-05-07T08:09:21;9.93;;;5.47;;
78927;SDS011;68322;22.726;113.540;2023-05-07T08:11:50;10.10;;;6.97;;
78927;SDS011;68322;22.726;113.540;2023-05-07T08:14:17;10.73;;;6.85;;
78927;SDS011;68322;22.726;113.540;2023-05-07T08:16:43;14.73;;;8.18;;
78927;SDS011;68322;22.726;113.540;2023-05-07T08:19:10;12.18;;;7.15;;
78927;SDS011;68322;22.726;113.540;2023-05-07T08:21:40;12.60;;;7.30;;
78927;SDS011;68322;22.726;113.540;2023-05-07T08:24:07;12.57;;;8.07;;
78927;SDS011;68322;22.726;113.540;2023-05-07T08:26:33;19.00;;;9.13;;
78927;SDS011;68322;22.726;113.540;2023-05-07T08:29:01;15.65;;;10.10;;
78927;SDS011;68322;22.726;113.540;2023-05-07T08:31:29;14.95;;;9.70;;
78927;SDS011;68322;22.726;113.540;2023-05-07T08:33:57;14.43;;;10.23;;
78927;SDS011;68322;22.726;113.540;2023-05-07T08:36:29;19.13;;;11.25;;
78927;SDS011;68322;22.726;113.540;2023-05-07T08:38:55;19.25;;;11.57;;
78927;SDS011;68322;22.726;113.540;2023-05-07T08:41:24;20.65;;;11.68;;
78927;SDS011;68322;22.726;113.540;2023-05-07T08:43:51;21.30;;;13.38;;
78927;SDS011;68322;22.726;113.540;2023-05-07T08:46:18;23.35;;;13.93;;
78927;SDS011;68322;22.726;113.540;2023-05-07T08:48:48;21.33;;;12.52;;
78927;SDS011;68322;22.726;113.540;2023-05-07T08:51:17;17.90;;;11.15;;
78927;SDS011;68322;22.726;113.540;2023-05-07T08:56:13;21.17;;;12.38;;
78927;SDS011;68322;22.726;113.540;2023-05-07T08:58:45;19.75;;;11.98;;
78927;SDS011;68322;22.726;113.540;2023-05-07T09:01:15;19.27;;;11.27;;
78927;SDS011;68322;22.726;113.540;2023-05-07T09:03:46;20.95;;;13.50;;
78927;SDS011;68322;22.726;113.540;2023-05-07T09:06:13;17.38;;;12.40;;
78927;SDS011;68322;22.726;113.540;2023-05-07T09:08:40;21.50;;;12.05;;
78927;SDS011;68322;22.726;113.540;2023-05-07T09:11:06;17.42;;;11.48;;
78927;SDS011;68322;22.726;113.540;2023-05-07T09:13:33;21.30;;;12.30;;
78927;SDS011;68322;22.726;113.540;2023-05-07T09:16:09;17.08;;;12.00;;
78927;SDS011;68322;22.726;113.540;2023-05-07T09:18:40;20.60;;;13.10;;
78927;SDS011;68322;22.726;113.540;2023-05-07T09:21:09;18.30;;;12.73;;
78927;SDS011;68322;22.726;113.540;2023-05-07T09:23:36;20.17;;;11.65;;
78927;SDS011;68322;22.726;113.540;2023-05-07T09:26:02;17.88;;;11.20;;
78927;SDS011;68322;22.726;113.540;2023-05-07T09:28:38;17.23;;;10.10;;
78927;SDS011;68322;22.726;113.540;2023-05-07T09:31:06;14.02;;;9.35;;
78927;SDS011;68322;22.726;113.540;2023-05-07T09:33:33;21.50;;;9.98;;
78927;SDS011;68322;22.726;113.540;2023-05-07T09:36:06;20.23;;;12.00;;
78927;SDS011;68322;22.726;113.540;2023-05-07T09:38:34;23.58;;;12.75;;
78927;SDS011;68322;22.726;113.540;2023-05-07T09:41:01;18.05;;;11.35;;
78927;SDS011;68322;22.726;113.540;2023-05-07T09:43:31;19.83;;;11.20;;
78927;SDS011;68322;22.726;113.540;2023-05-07T09:46:02;18.80;;;10.80;;
78927;SDS011;68322;22.726;113.540;2023-05-07T09:48:29;18.00;;;10.68;;
78927;SDS011;68322;22.726;113.540;2023-05-07T09:50:56;20.80;;;11.52;;
78927;SDS011;68322;22.726;113.540;2023-05-07T09:53:26;19.88;;;10.45;;
78927;SDS011;68322;22.726;113.540;2023-05-07T09:55:53;16.35;;;10.77;;
78927;SDS011;68322;22.726;113.540;2023-05-07T09:58:20;20.27;;;11.13;;
78927;SDS011;68322;22.726;113.540;2023-05-07T10:00:48;18.88;;;10.52;;
78927;SDS011;68322;22.726;113.540;2023-05-07T10:03:16;15.45;;;9.60;;
78927;SDS011;68322;22.726;113.540;2023-05-07T10:05:43;16.00;;;9.48;;
78927;SDS011;68322;22.726;113.540;2023-05-07T10:08:11;13.68;;;9.15;;
78927;SDS011;68322;22.726;113.540;2023-05-07T10:10:38;17.17;;;8.82;;
78927;SDS011;68322;22.726;113.540;2023-05-07T10:13:07;20.98;;;8.60;;
78927;SDS011;68322;22.726;113.540;2023-05-07T10:15:36;11.93;;;7.40;;
78927;SDS011;68322;22.726;113.540;2023-05-07T10:18:03;12.52;;;6.93;;
78927;SDS011;68322;22.726;113.540;2023-05-07T10:20:34;12.75;;;7.68;;
78927;SDS011;68322;22.726;113.540;2023-05-07T10:25:29;14.45;;;6.60;;
78927;SDS011;68322;22.726;113.540;2023-05-07T10:27:57;10.75;;;5.70;;
78927;SDS011;68322;22.726;113.540;2023-05-07T10:32:59;9.45;;;5.32;;
78927;SDS011;68322;22.726;113.540;2023-05-07T10:35:32;7.35;;;5.00;;
78927;SDS011;68322;22.726;113.540;2023-05-07T10:38:02;7.18;;;4.75;;
78927;SDS011;68322;22.726;113.540;2023-05-07T10:40:30;12.85;;;5.45;;
78927;SDS011;68322;22.726;113.540;2023-05-07T10:42:59;13.65;;;5.72;;
78927;SDS011;68322;22.726;113.540;2023-05-07T10:45:27;9.20;;;5.05;;
78927;SDS011;68322;22.726;113.540;2023-05-07T10:50:39;8.25;;;4.90;;
78927;SDS011;68322;22.726;113.540;2023-05-07T10:55:51;6.57;;;4.72;;
78927;SDS011;68322;22.726;113.540;2023-05-07T10:58:38;11.73;;;5.30;;
78927;SDS011;68322;22.726;113.540;2023-05-07T11:01:04;17.45;;;5.68;;
78927;SDS011;68322;22.726;113.540;2023-05-07T11:03:31;11.40;;;4.85;;
78927;SDS011;68322;22.726;113.540;2023-05-07T11:06:31;7.43;;;5.45;;
78927;SDS011;68322;22.726;113.540;2023-05-07T11:08:53;14.55;;;5.82;;
78927;SDS011;68322;22.726;113.540;2023-05-07T11:12:05;13.18;;;5.63;;
78927;SDS011;68322;22.726;113.540;2023-05-07T11:14:07;11.02;;;5.35;;
78927;SDS011;68322;22.726;113.540;2023-05-07T11:16:34;10.55;;;5.63;;
78927;SDS011;68322;22.726;113.540;2023-05-07T11:19:02;9.30;;;5.80;;
78927;SDS011;68322;22.726;113.540;2023-05-07T11:23:58;8.65;;;5.78;;
78927;SDS011;68322;22.726;113.540;2023-05-07T11:26:25;9.23;;;6.07;;
78927;SDS011;68322;22.726;113.540;2023-05-07T11:28:52;7.75;;;6.50;;
78927;SDS011;68322;22.726;113.540;2023-05-07T11:31:23;9.43;;;6.43;;
78927;SDS011;68322;22.726;113.540;2023-05-07T11:33:51;9.60;;;6.03;;
78927;SDS011;68322;22.726;113.540;2023-05-07T11:36:19;10.48;;;6.13;;
78927;SDS011;68322;22.726;113.540;2023-05-07T11:38:46;12.68;;;5.78;;
78927;SDS011;68322;22.726;113.540;2023-05-07T11:41:12;11.10;;;6.55;;
78927;SDS011;68322;22.726;113.540;2023-05-07T11:43:53;10.75;;;6.35;;
78927;SDS011;68322;22.726;113.540;2023-05-07T11:46:23;9.65;;;7.13;;
78927;SDS011;68322;22.726;113.540;2023-05-07T11:48:50;10.30;;;6.38;;
78927;SDS011;68322;22.726;113.540;2023-05-07T11:51:20;8.85;;;6.03;;
78927;SDS011;68322;22.726;113.540;2023-05-07T11:53:48;11.13;;;7.50;;
78927;SDS011;68322;22.726;113.540;2023-05-07T11:56:15;17.08;;;7.68;;
78927;SDS011;68322;22.726;113.540;2023-05-07T11:58:48;11.60;;;7.78;;
78927;SDS011;68322;22.726;113.540;2023-05-07T12:03:43;9.93;;;6.85;;
78927;SDS011;68322;22.726;113.540;2023-05-07T12:06:13;12.20;;;7.45;;
78927;SDS011;68322;22.726;113.540;2023-05-07T12:08:40;13.88;;;7.85;;
78927;SDS011;68322;22.726;113.540;2023-05-07T12:11:23;13.30;;;7.75;;
78927;SDS011;68322;22.726;113.540;2023-05-07T12:13:51;18.27;;;7.85;;
78927;SDS011;68322;22.726;113.540;2023-05-07T12:16:18;12.70;;;8.85;;
78927;SDS011;68322;22.726;113.540;2023-05-07T12:18:45;10.93;;;7.57;;
78927;SDS011;68322;22.726;113.540;2023-05-07T12:21:14;14.57;;;7.75;;
78927;SDS011;68322;22.726;113.540;2023-05-07T12:23:42;12.13;;;7.45;;
78927;SDS011;68322;22.726;113.540;2023-05-07T12:26:09;10.48;;;6.53;;
78927;SDS011;68322;22.726;113.540;2023-05-07T12:28:36;13.80;;;8.82;;
78927;SDS011;68322;22.726;113.540;2023-05-07T12:31:06;11.85;;;7.75;;
78927;SDS011;68322;22.726;113.540;2023-05-07T12:33:34;12.52;;;8.00;;
78927;SDS011;68322;22.726;113.540;2023-05-07T12:36:05;13.85;;;7.75;;
78927;SDS011;68322;22.726;113.540;2023-05-07T12:38:36;9.35;;;6.97;;
78927;SDS011;68322;22.726;113.540;2023-05-07T12:41:04;13.48;;;7.05;;
78927;SDS011;68322;22.726;113.540;2023-05-07T12:43:31;10.05;;;7.22;;
78927;SDS011;68322;22.726;113.540;2023-05-07T12:45:59;13.57;;;6.90;;
78927;SDS011;68322;22.726;113.540;2023-05-07T12:48:26;13.93;;;7.18;;
78927;SDS011;68322;22.726;113.540;2023-05-07T12:50:53;11.45;;;7.00;;
78927;SDS011;68322;22.726;113.540;2023-05-07T12:53:21;13.23;;;6.50;;
78927;SDS011;68322;22.726;113.540;2023-05-07T12:55:49;12.85;;;7.90;;
78927;SDS011;68322;22.726;113.540;2023-05-07T12:58:21;12.40;;;6.95;;
78927;SDS011;68322;22.726;113.540;2023-05-07T13:00:48;10.65;;;6.57;;
78927;SDS011;68322;22.726;113.540;2023-05-07T13:03:25;13.40;;;6.88;;
78927;SDS011;68322;22.726;113.540;2023-05-07T13:05:55;9.43;;;6.22;;
78927;SDS011;68322;22.726;113.540;2023-05-07T13:08:26;11.18;;;6.97;;
78927;SDS011;68322;22.726;113.540;2023-05-07T13:10:54;12.77;;;7.40;;
78927;SDS011;68322;22.726;113.540;2023-05-07T13:13:21;12.75;;;7.10;;
78927;SDS011;68322;22.726;113.540;2023-05-07T13:15:48;10.80;;;6.53;;
78927;SDS011;68322;22.726;113.540;2023-05-07T13:18:14;10.57;;;6.70;;
78927;SDS011;68322;22.726;113.540;2023-05-07T13:20:48;10.95;;;7.13;;
78927;SDS011;68322;22.726;113.540;2023-05-07T13:23:15;10.63;;;7.13;;
78927;SDS011;68322;22.726;113.540;2023-05-07T13:25:43;10.52;;;6.88;;
78927;SDS011;68322;22.726;113.540;2023-05-07T13:28:09;12.60;;;7.20;;
78927;SDS011;68322;22.726;113.540;2023-05-07T13:30:37;9.38;;;6.60;;
78927;SDS011;68322;22.726;113.540;2023-05-07T13:33:03;9.38;;;6.15;;
78927;SDS011;68322;22.726;113.540;2023-05-07T13:35:30;10.15;;;6.95;;
78927;SDS011;68322;22.726;113.540;2023-05-07T13:37:57;13.23;;;7.00;;
78927;SDS011;68322;22.726;113.540;2023-05-07T13:40:24;9.45;;;6.53;;
78927;SDS011;68322;22.726;113.540;2023-05-07T13:42:51;10.45;;;7.15;;
78927;SDS011;68322;22.726;113.540;2023-05-07T13:45:19;11.63;;;6.50;;
78927;SDS011;68322;22.726;113.540;2023-05-07T13:47:46;11.18;;;6.80;;
78927;SDS011;68322;22.726;113.540;2023-05-07T13:50:14;10.43;;;6.82;;
78927;SDS011;68322;22.726;113.540;2023-05-07T13:52:42;10.60;;;7.13;;
78927;SDS011;68322;22.726;113.540;2023-05-07T13:55:18;11.48;;;6.40;;
78927;SDS011;68322;22.726;113.540;2023-05-07T13:57:46;12.07;;;7.32;;
78927;SDS011;68322;22.726;113.540;2023-05-07T14:00:14;11.77;;;6.70;;
78927;SDS011;68322;22.726;113.540;2023-05-07T14:02:44;9.63;;;7.20;;
78927;SDS011;68322;22.726;113.540;2023-05-07T14:05:11;13.35;;;7.20;;
78927;SDS011;68322;22.726;113.540;2023-05-07T14:07:38;11.70;;;7.25;;
78927;SDS011;68322;22.726;113.540;2023-05-07T14:10:05;14.65;;;7.25;;
78927;SDS011;68322;22.726;113.540;2023-05-07T14:12:32;11.93;;;7.18;;
78927;SDS011;68322;22.726;113.540;2023-05-07T14:15:15;11.98;;;6.55;;
78927;SDS011;68322;22.726;113.540;2023-05-07T14:17:42;9.48;;;7.00;;
78927;SDS011;68322;22.726;113.540;2023-05-07T14:20:09;8.55;;;6.43;;
78927;SDS011;68322;22.726;113.540;2023-05-07T14:22:36;10.68;;;7.38;;
78927;SDS011;68322;22.726;113.540;2023-05-07T14:25:03;10.05;;;6.53;;
78927;SDS011;68322;22.726;113.540;2023-05-07T14:27:29;9.20;;;6.75;;
78927;SDS011;68322;22.726;113.540;2023-05-07T14:29:56;14.70;;;7.25;;
78927;SDS011;68322;22.726;113.540;2023-05-07T14:32:23;15.75;;;7.13;;